sensor_id;sensor_type;location;lat;lon;timestamp;temperature;humidity
13794;DHT22;31160;49.500;7.772;2023-08-24T00:02:09;18.80;99.90
13794;DHT22;31160;49.500;7.772;2023-08-24T00:04:37;18.80;99.90
13794;DHT22;31160;49.500;7.772;2023-08-24T00:07:05;18.80;99.90
13794;DHT22;31160;49.500;7.772;2023-08-24T00:09:33;18.80;99.90
13794;DHT22;31160;49.500;7.772;2023-08-24T00:12:00;18.70;99.90
13794;DHT22;31160;49.500;7.772;2023-08-24T00:14:28;18.80;99.90
13794;DHT22;31160;49.500;7.772;2023-08-24T00:16:56;18.80;99.90
13794;DHT22;31160;49.500;7.772;2023-08-24T00:19:23;18.80;99.90
13794;DHT22;31160;49.500;7.772;2023-08-24T00:21:50;18.90;99.90
13794;DHT22;31160;49.500;7.772;2023-08-24T00:24:18;18.90;99.90
13794;DHT22;31160;49.500;7.772;2023-08-24T00:26:47;19.00;99.90
13794;DHT22;31160;49.500;7.772;2023-08-24T00:29:15;18.90;99.90
13794;DHT22;31160;49.500;7.772;2023-08-24T00:31:43;18.90;99.90
13794;DHT22;31160;49.500;7.772;2023-08-24T00:34:10;19.00;99.90
13794;DHT22;31160;49.500;7.772;2023-08-24T00:36:39;19.00;99.90
13794;DHT22;31160;49.500;7.772;2023-08-24T00:39:08;19.00;99.90
13794;DHT22;31160;49.500;7.772;2023-08-24T00:41:37;19.00;99.90
13794;DHT22;31160;49.500;7.772;2023-08-24T00:44:04;19.00;99.90
13794;DHT22;31160;49.500;7.772;2023-08-24T00:46:34;19.00;99.90
13794;DHT22;31160;49.500;7.772;2023-08-24T00:49:02;19.00;99.90
13794;DHT22;31160;49.500;7.772;2023-08-24T00:51:31;19.10;99.90
13794;DHT22;31160;49.500;7.772;2023-08-24T00:53:59;19.10;99.90
13794;DHT22;31160;49.500;7.772;2023-08-24T00:56:28;19.10;99.90
13794;DHT22;31160;49.500;7.772;2023-08-24T00:58:57;19.10;99.90
13794;DHT22;31160;49.500;7.772;2023-08-24T01:01:27;19.10;99.90
13794;DHT22;31160;49.500;7.772;2023-08-24T01:03:54;19.10;99.90
13794;DHT22;31160;49.500;7.772;2023-08-24T01:06:21;19.20;99.90
13794;DHT22;31160;49.500;7.772;2023-08-24T01:08:48;19.20;99.90
13794;DHT22;31160;49.500;7.772;2023-08-24T01:13:58;19.20;99.90
13794;DHT22;31160;49.500;7.772;2023-08-24T01:16:28;19.10;99.90
13794;DHT22;31160;49.500;7.772;2023-08-24T01:18:57;19.10;99.90
13794;DHT22;31160;49.500;7.772;2023-08-24T01:21:26;19.10;99.90
13794;DHT22;31160;49.500;7.772;2023-08-24T01:24:14;19.00;99.90
13794;DHT22;31160;49.500;7.772;2023-08-24T01:26:44;18.90;99.90
13794;DHT22;31160;49.500;7.772;2023-08-24T01:29:10;18.90;99.90
13794;DHT22;31160;49.500;7.772;2023-08-24T01:31:37;18.90;99.90
13794;DHT22;31160;49.500;7.772;2023-08-24T01:34:04;19.00;99.90
13794;DHT22;31160;49.500;7.772;2023-08-24T01:36:31;19.00;99.90
13794;DHT22;31160;49.500;7.772;2023-08-24T01:42:02;19.10;99.90
13794;DHT22;31160;49.500;7.772;2023-08-24T01:44:32;19.10;99.90
13794;DHT22;31160;49.500;7.772;2023-08-24T01:47:03;19.20;99.90
13794;DHT22;31160;49.500;7.772;2023-08-24T01:49:32;19.10;99.90
13794;DHT22;31160;49.500;7.772;2023-08-24T01:52:01;19.10;99.90
13794;DHT22;31160;49.500;7.772;2023-08-24T01:54:28;19.10;99.90
13794;DHT22;31160;49.500;7.772;2023-08-24T01:56:55;19.00;99.90
13794;DHT22;31160;49.500;7.772;2023-08-24T01:59:22;18.90;99.90
13794;DHT22;31160;49.500;7.772;2023-08-24T02:01:48;18.90;99.90
13794;DHT22;31160;49.500;7.772;2023-08-24T02:04:15;18.90;99.90
13794;DHT22;31160;49.500;7.772;2023-08-24T02:06:42;18.80;99.90
13794;DHT22;31160;49.500;7.772;2023-08-24T02:09:09;18.90;99.90
13794;DHT22;31160;49.500;7.772;2023-08-24T02:11:35;18.90;99.90
13794;DHT22;31160;49.500;7.772;2023-08-24T02:14:02;18.90;99.90
13794;DHT22;31160;49.500;7.772;2023-08-24T02:16:29;18.80;99.90
13794;DHT22;31160;49.500;7.772;2023-08-24T02:18:56;18.80;99.90
13794;DHT22;31160;49.500;7.772;2023-08-24T02:21:23;18.80;99.90
13794;DHT22;31160;49.500;7.772;2023-08-24T02:23:50;18.70;99.90
13794;DHT22;31160;49.500;7.772;2023-08-24T02:26:16;18.70;99.90
13794;DHT22;31160;49.500;7.772;2023-08-24T02:28:43;18.70;99.90
13794;DHT22;31160;49.500;7.772;2023-08-24T02:31:10;18.70;99.90
13794;DHT22;31160;49.500;7.772;2023-08-24T02:33:37;18.80;99.90
13794;DHT22;31160;49.500;7.772;2023-08-24T02:36:04;18.80;99.90
13794;DHT22;31160;49.500;7.772;2023-08-24T02:38:31;18.80;99.90
13794;DHT22;31160;49.500;7.772;2023-08-24T02:41:03;18.90;99.90
13794;DHT22;31160;49.500;7.772;2023-08-24T02:43:31;19.00;99.90
13794;DHT22;31160;49.500;7.772;2023-08-24T02:46:06;18.90;99.90
13794;DHT22;31160;49.500;7.772;2023-08-24T02:48:33;19.00;99.90
13794;DHT22;31160;49.500;7.772;2023-08-24T02:51:02;18.80;99.90
13794;DHT22;31160;49.500;7.772;2023-08-24T02:53:30;18.80;99.90
13794;DHT22;31160;49.500;7.772;2023-08-24T02:55:57;18.80;99.90
13794;DHT22;31160;49.500;7.772;2023-08-24T02:58:24;18.80;99.90
13794;DHT22;31160;49.500;7.772;2023-08-24T03:00:51;18.70;99.90
13794;DHT22;31160;49.500;7.772;2023-08-24T03:03:17;18.60;99.90
13794;DHT22;31160;49.500;7.772;2023-08-24T03:05:57;18.50;99.90
13794;DHT22;31160;49.500;7.772;2023-08-24T03:08:26;18.50;99.90
13794;DHT22;31160;49.500;7.772;2023-08-24T03:10:53;18.60;99.90
13794;DHT22;31160;49.500;7.772;2023-08-24T03:13:20;18.80;99.90
13794;DHT22;31160;49.500;7.772;2023-08-24T03:15:47;18.80;99.90
13794;DHT22;31160;49.500;7.772;2023-08-24T03:18:16;18.90;99.90
13794;DHT22;31160;49.500;7.772;2023-08-24T03:20:44;19.00;99.90
13794;DHT22;31160;49.500;7.772;2023-08-24T03:23:13;19.10;99.90
13794;DHT22;31160;49.500;7.772;2023-08-24T03:25:41;19.10;99.90
13794;DHT22;31160;49.500;7.772;2023-08-24T03:28:09;19.10;99.90
13794;DHT22;31160;49.500;7.772;2023-08-24T03:30:38;19.20;99.90
13794;DHT22;31160;49.500;7.772;2023-08-24T03:33:07;19.20;99.90
13794;DHT22;31160;49.500;7.772;2023-08-24T03:35:34;19.30;99.90
13794;DHT22;31160;49.500;7.772;2023-08-24T03:38:01;19.30;99.90
13794;DHT22;31160;49.500;7.772;2023-08-24T03:40:27;19.20;99.90
13794;DHT22;31160;49.500;7.772;2023-08-24T03:42:54;19.20;99.90
13794;DHT22;31160;49.500;7.772;2023-08-24T03:45:22;19.20;99.90
13794;DHT22;31160;49.500;7.772;2023-08-24T03:47:49;19.20;99.90
13794;DHT22;31160;49.500;7.772;2023-08-24T03:50:17;19.20;99.90
13794;DHT22;31160;49.500;7.772;2023-08-24T03:52:43;19.20;99.90
13794;DHT22;31160;49.500;7.772;2023-08-24T03:55:10;19.10;99.90
13794;DHT22;31160;49.500;7.772;2023-08-24T03:57:37;19.20;99.90
13794;DHT22;31160;49.500;7.772;2023-08-24T04:00:08;19.10;99.90
13794;DHT22;31160;49.500;7.772;2023-08-24T04:02:43;19.20;99.90
13794;DHT22;31160;49.500;7.772;2023-08-24T04:05:18;19.20;99.90
13794;DHT22;31160;49.500;7.772;2023-08-24T04:07:46;19.10;99.90
13794;DHT22;31160;49.500;7.772;2023-08-24T04:10:14;19.20;99.90
13794;DHT22;31160;49.500;7.772;2023-08-24T04:12:41;19.10;99.90
13794;DHT22;31160;49.500;7.772;2023-08-24T04:15:09;19.10;99.90
13794;DHT22;31160;49.500;7.772;2023-08-24T04:17:36;19.10;99.90
13794;DHT22;31160;49.500;7.772;2023-08-24T04:20:03;19.10;99.90
13794;DHT22;31160;49.500;7.772;2023-08-24T04:22:33;19.10;99.90
13794;DHT22;31160;49.500;7.772;2023-08-24T04:24:59;19.20;99.90
13794;DHT22;31160;49.500;7.772;2023-08-24T04:27:26;19.20;99.90
13794;DHT22;31160;49.500;7.772;2023-08-24T04:29:53;19.30;99.90
13794;DHT22;31160;49.500;7.772;2023-08-24T04:32:20;19.30;99.90
13794;DHT22;31160;49.500;7.772;2023-08-24T04:34:47;19.20;99.90
13794;DHT22;31160;49.500;7.772;2023-08-24T04:37:13;19.30;99.90
13794;DHT22;31160;49.500;7.772;2023-08-24T04:39:40;19.20;99.90
13794;DHT22;31160;49.500;7.772;2023-08-24T04:42:07;19.20;99.90
13794;DHT22;31160;49.500;7.772;2023-08-24T04:44:34;19.30;99.90
13794;DHT22;31160;49.500;7.772;2023-08-24T04:47:00;19.30;99.90
13794;DHT22;31160;49.500;7.772;2023-08-24T04:49:27;19.40;99.90
13794;DHT22;31160;49.500;7.772;2023-08-24T04:51:55;19.40;99.90
13794;DHT22;31160;49.500;7.772;2023-08-24T04:54:22;19.40;99.90
13794;DHT22;31160;49.500;7.772;2023-08-24T04:56:48;19.30;99.90
13794;DHT22;31160;49.500;7.772;2023-08-24T04:59:15;19.30;99.90
13794;DHT22;31160;49.500;7.772;2023-08-24T05:01:42;19.30;99.90
13794;DHT22;31160;49.500;7.772;2023-08-24T05:04:08;19.30;99.90
13794;DHT22;31160;49.500;7.772;2023-08-24T05:06:35;19.30;99.90
13794;DHT22;31160;49.500;7.772;2023-08-24T05:09:02;19.40;99.90
13794;DHT22;31160;49.500;7.772;2023-08-24T05:11:29;19.50;99.90
13794;DHT22;31160;49.500;7.772;2023-08-24T05:13:55;19.60;99.90
13794;DHT22;31160;49.500;7.772;2023-08-24T05:16:22;19.70;99.90
13794;DHT22;31160;49.500;7.772;2023-08-24T05:18:49;19.70;99.90
13794;DHT22;31160;49.500;7.772;2023-08-24T05:21:16;19.70;99.90
13794;DHT22;31160;49.500;7.772;2023-08-24T05:23:43;19.80;99.90
13794;DHT22;31160;49.500;7.772;2023-08-24T05:26:10;19.80;99.90
13794;DHT22;31160;49.500;7.772;2023-08-24T05:28:36;19.80;99.90
13794;DHT22;31160;49.500;7.772;2023-08-24T05:31:03;19.80;99.90
13794;DHT22;31160;49.500;7.772;2023-08-24T05:33:30;20.00;99.90
13794;DHT22;31160;49.500;7.772;2023-08-24T05:36:00;20.10;99.90
13794;DHT22;31160;49.500;7.772;2023-08-24T05:38:26;20.10;99.90
13794;DHT22;31160;49.500;7.772;2023-08-24T05:40:53;20.10;99.90
13794;DHT22;31160;49.500;7.772;2023-08-24T05:43:20;20.20;99.90
13794;DHT22;31160;49.500;7.772;2023-08-24T05:45:48;20.20;99.90
13794;DHT22;31160;49.500;7.772;2023-08-24T05:48:15;20.30;99.90
13794;DHT22;31160;49.500;7.772;2023-08-24T05:50:45;20.20;99.90
13794;DHT22;31160;49.500;7.772;2023-08-24T05:53:13;20.00;99.90
13794;DHT22;31160;49.500;7.772;2023-08-24T05:55:40;20.00;99.90
13794;DHT22;31160;49.500;7.772;2023-08-24T05:58:07;20.00;99.90
13794;DHT22;31160;49.500;7.772;2023-08-24T06:00:34;20.10;99.90
13794;DHT22;31160;49.500;7.772;2023-08-24T06:03:01;20.10;99.90
13794;DHT22;31160;49.500;7.772;2023-08-24T06:05:30;20.20;99.90
13794;DHT22;31160;49.500;7.772;2023-08-24T06:07:57;20.30;99.90
13794;DHT22;31160;49.500;7.772;2023-08-24T06:10:24;20.40;99.90
13794;DHT22;31160;49.500;7.772;2023-08-24T06:12:53;20.50;99.90
13794;DHT22;31160;49.500;7.772;2023-08-24T06:15:20;20.60;99.90
13794;DHT22;31160;49.500;7.772;2023-08-24T06:17:50;20.70;99.90
13794;DHT22;31160;49.500;7.772;2023-08-24T06:20:18;20.90;99.90
13794;DHT22;31160;49.500;7.772;2023-08-24T06:22:45;21.10;99.90
13794;DHT22;31160;49.500;7.772;2023-08-24T06:25:12;21.30;99.90
13794;DHT22;31160;49.500;7.772;2023-08-24T06:27:39;21.50;99.90
13794;DHT22;31160;49.500;7.772;2023-08-24T06:30:06;21.60;99.90
13794;DHT22;31160;49.500;7.772;2023-08-24T06:32:33;21.70;99.90
13794;DHT22;31160;49.500;7.772;2023-08-24T06:35:00;21.90;99.90
13794;DHT22;31160;49.500;7.772;2023-08-24T06:37:27;22.00;99.90
13794;DHT22;31160;49.500;7.772;2023-08-24T06:39:54;21.90;99.90
13794;DHT22;31160;49.500;7.772;2023-08-24T06:42:20;21.90;99.90
13794;DHT22;31160;49.500;7.772;2023-08-24T06:44:48;22.10;99.90
13794;DHT22;31160;49.500;7.772;2023-08-24T06:47:17;22.20;99.90
13794;DHT22;31160;49.500;7.772;2023-08-24T06:49:44;22.30;99.90
13794;DHT22;31160;49.500;7.772;2023-08-24T06:52:11;22.60;99.90
13794;DHT22;31160;49.500;7.772;2023-08-24T06:54:38;23.00;99.90
13794;DHT22;31160;49.500;7.772;2023-08-24T06:57:05;23.20;99.90
13794;DHT22;31160;49.500;7.772;2023-08-24T06:59:31;23.20;99.90
13794;DHT22;31160;49.500;7.772;2023-08-24T07:01:58;23.20;99.90
13794;DHT22;31160;49.500;7.772;2023-08-24T07:04:26;23.20;99.90
13794;DHT22;31160;49.500;7.772;2023-08-24T07:06:53;23.20;99.90
13794;DHT22;31160;49.500;7.772;2023-08-24T07:09:20;23.30;99.90
13794;DHT22;31160;49.500;7.772;2023-08-24T07:11:48;23.30;99.90
13794;DHT22;31160;49.500;7.772;2023-08-24T07:14:15;23.30;99.90
13794;DHT22;31160;49.500;7.772;2023-08-24T07:16:42;23.20;99.90
13794;DHT22;31160;49.500;7.772;2023-08-24T07:19:09;22.90;99.90
13794;DHT22;31160;49.500;7.772;2023-08-24T07:21:36;22.80;99.90
13794;DHT22;31160;49.500;7.772;2023-08-24T07:24:03;22.90;99.90
13794;DHT22;31160;49.500;7.772;2023-08-24T07:26:31;22.90;99.90
13794;DHT22;31160;49.500;7.772;2023-08-24T07:28:58;22.70;99.90
13794;DHT22;31160;49.500;7.772;2023-08-24T07:31:25;22.70;99.90
13794;DHT22;31160;49.500;7.772;2023-08-24T07:33:51;22.70;99.90
13794;DHT22;31160;49.500;7.772;2023-08-24T07:36:18;23.00;99.90
13794;DHT22;31160;49.500;7.772;2023-08-24T07:38:45;22.80;99.90
13794;DHT22;31160;49.500;7.772;2023-08-24T07:41:13;23.00;99.90
13794;DHT22;31160;49.500;7.772;2023-08-24T07:43:40;23.10;99.90
13794;DHT22;31160;49.500;7.772;2023-08-24T07:46:07;23.40;99.90
13794;DHT22;31160;49.500;7.772;2023-08-24T07:48:35;23.70;99.90
13794;DHT22;31160;49.500;7.772;2023-08-24T07:51:02;23.90;99.90
13794;DHT22;31160;49.500;7.772;2023-08-24T07:53:29;24.00;99.90
13794;DHT22;31160;49.500;7.772;2023-08-24T07:55:56;24.10;99.90
13794;DHT22;31160;49.500;7.772;2023-08-24T07:58:25;24.00;99.90
13794;DHT22;31160;49.500;7.772;2023-08-24T08:00:52;24.00;99.90
13794;DHT22;31160;49.500;7.772;2023-08-24T08:03:20;24.00;99.90
13794;DHT22;31160;49.500;7.772;2023-08-24T08:05:47;23.90;99.90
13794;DHT22;31160;49.500;7.772;2023-08-24T08:08:14;23.80;99.90
13794;DHT22;31160;49.500;7.772;2023-08-24T08:10:42;24.20;99.90
13794;DHT22;31160;49.500;7.772;2023-08-24T08:13:09;24.60;99.90
13794;DHT22;31160;49.500;7.772;2023-08-24T08:15:38;24.80;99.90
13794;DHT22;31160;49.500;7.772;2023-08-24T08:18:05;25.10;99.90
13794;DHT22;31160;49.500;7.772;2023-08-24T08:20:32;25.40;99.90
13794;DHT22;31160;49.500;7.772;2023-08-24T08:22:59;25.80;99.90
13794;DHT22;31160;49.500;7.772;2023-08-24T08:25:26;26.00;99.90
13794;DHT22;31160;49.500;7.772;2023-08-24T08:27:53;25.40;99.90
13794;DHT22;31160;49.500;7.772;2023-08-24T08:30:19;24.70;99.90
13794;DHT22;31160;49.500;7.772;2023-08-24T08:32:46;24.50;99.90
13794;DHT22;31160;49.500;7.772;2023-08-24T08:35:13;24.70;99.90
13794;DHT22;31160;49.500;7.772;2023-08-24T08:37:40;24.80;99.90
13794;DHT22;31160;49.500;7.772;2023-08-24T08:40:10;24.90;99.90
13794;DHT22;31160;49.500;7.772;2023-08-24T08:42:37;25.10;99.90
13794;DHT22;31160;49.500;7.772;2023-08-24T08:45:09;25.30;99.90
13794;DHT22;31160;49.500;7.772;2023-08-24T08:47:36;25.60;99.90
13794;DHT22;31160;49.500;7.772;2023-08-24T08:50:03;25.80;99.90
13794;DHT22;31160;49.500;7.772;2023-08-24T08:52:31;26.00;99.90
13794;DHT22;31160;49.500;7.772;2023-08-24T08:54:59;26.30;99.90
13794;DHT22;31160;49.500;7.772;2023-08-24T08:57:26;26.50;99.20
13794;DHT22;31160;49.500;7.772;2023-08-24T08:59:53;26.50;98.00
13794;DHT22;31160;49.500;7.772;2023-08-24T09:02:21;26.40;99.00
13794;DHT22;31160;49.500;7.772;2023-08-24T09:04:51;26.40;98.70
13794;DHT22;31160;49.500;7.772;2023-08-24T09:07:19;26.40;99.00
13794;DHT22;31160;49.500;7.772;2023-08-24T09:09:47;26.20;99.00
13794;DHT22;31160;49.500;7.772;2023-08-24T09:12:14;26.20;99.80
13794;DHT22;31160;49.500;7.772;2023-08-24T09:14:40;26.20;98.00
13794;DHT22;31160;49.500;7.772;2023-08-24T09:17:08;26.10;98.40
13794;DHT22;31160;49.500;7.772;2023-08-24T09:19:35;26.00;98.80
13794;DHT22;31160;49.500;7.772;2023-08-24T09:22:05;26.10;98.10
13794;DHT22;31160;49.500;7.772;2023-08-24T09:24:35;26.50;97.50
13794;DHT22;31160;49.500;7.772;2023-08-24T09:27:16;26.50;97.50
13794;DHT22;31160;49.500;7.772;2023-08-24T09:29:50;26.70;96.80
13794;DHT22;31160;49.500;7.772;2023-08-24T09:32:31;26.70;96.60
13794;DHT22;31160;49.500;7.772;2023-08-24T09:35:08;26.90;96.30
13794;DHT22;31160;49.500;7.772;2023-08-24T09:37:37;26.90;96.00
13794;DHT22;31160;49.500;7.772;2023-08-24T09:40:05;26.90;95.80
13794;DHT22;31160;49.500;7.772;2023-08-24T09:42:38;26.90;95.40
13794;DHT22;31160;49.500;7.772;2023-08-24T09:45:07;26.90;95.10
13794;DHT22;31160;49.500;7.772;2023-08-24T09:47:37;27.00;95.50
13794;DHT22;31160;49.500;7.772;2023-08-24T09:50:04;27.10;95.00
13794;DHT22;31160;49.500;7.772;2023-08-24T09:52:33;27.20;95.30
13794;DHT22;31160;49.500;7.772;2023-08-24T09:55:03;27.40;95.70
13794;DHT22;31160;49.500;7.772;2023-08-24T09:57:38;27.60;94.20
13794;DHT22;31160;49.500;7.772;2023-08-24T10:00:09;27.60;94.30
13794;DHT22;31160;49.500;7.772;2023-08-24T10:02:46;27.60;93.60
13794;DHT22;31160;49.500;7.772;2023-08-24T10:05:22;27.60;93.50
13794;DHT22;31160;49.500;7.772;2023-08-24T10:07:55;27.70;93.40
13794;DHT22;31160;49.500;7.772;2023-08-24T10:10:25;27.90;93.20
13794;DHT22;31160;49.500;7.772;2023-08-24T10:12:59;27.90;92.60
13794;DHT22;31160;49.500;7.772;2023-08-24T10:15:27;27.80;92.90
13794;DHT22;31160;49.500;7.772;2023-08-24T10:17:55;27.90;92.60
13794;DHT22;31160;49.500;7.772;2023-08-24T10:20:22;28.00;92.50
13794;DHT22;31160;49.500;7.772;2023-08-24T10:22:50;28.20;92.00
13794;DHT22;31160;49.500;7.772;2023-08-24T10:25:17;28.20;92.70
13794;DHT22;31160;49.500;7.772;2023-08-24T10:27:48;28.00;92.40
13794;DHT22;31160;49.500;7.772;2023-08-24T10:30:17;28.20;92.50
13794;DHT22;31160;49.500;7.772;2023-08-24T10:32:46;28.30;91.70
13794;DHT22;31160;49.500;7.772;2023-08-24T10:35:16;28.20;92.00
13794;DHT22;31160;49.500;7.772;2023-08-24T10:37:44;28.30;91.70
13794;DHT22;31160;49.500;7.772;2023-08-24T10:40:13;28.50;91.70
13794;DHT22;31160;49.500;7.772;2023-08-24T10:42:44;28.60;91.60
13794;DHT22;31160;49.500;7.772;2023-08-24T10:45:13;28.70;91.00
13794;DHT22;31160;49.500;7.772;2023-08-24T10:47:46;28.70;90.70
13794;DHT22;31160;49.500;7.772;2023-08-24T10:50:14;28.80;90.40
13794;DHT22;31160;49.500;7.772;2023-08-24T10:52:43;28.90;90.80
13794;DHT22;31160;49.500;7.772;2023-08-24T10:55:25;29.10;90.80
13794;DHT22;31160;49.500;7.772;2023-08-24T10:58:02;29.10;90.20
13794;DHT22;31160;49.500;7.772;2023-08-24T11:00:30;29.00;90.10
13794;DHT22;31160;49.500;7.772;2023-08-24T11:02:58;29.10;90.20
13794;DHT22;31160;49.500;7.772;2023-08-24T11:05:31;29.10;90.40
13794;DHT22;31160;49.500;7.772;2023-08-24T11:08:03;29.30;90.10
13794;DHT22;31160;49.500;7.772;2023-08-24T11:10:50;29.40;90.70
13794;DHT22;31160;49.500;7.772;2023-08-24T11:13:19;29.70;90.10
13794;DHT22;31160;49.500;7.772;2023-08-24T11:15:50;29.80;90.20
13794;DHT22;31160;49.500;7.772;2023-08-24T11:18:22;29.80;90.10
13794;DHT22;31160;49.500;7.772;2023-08-24T11:21:04;29.80;88.50
13794;DHT22;31160;49.500;7.772;2023-08-24T11:23:32;29.80;89.20
13794;DHT22;31160;49.500;7.772;2023-08-24T11:26:00;29.60;89.40
13794;DHT22;31160;49.500;7.772;2023-08-24T11:28:29;29.70;90.10
13794;DHT22;31160;49.500;7.772;2023-08-24T11:30:57;29.80;89.70
13794;DHT22;31160;49.500;7.772;2023-08-24T11:33:33;29.90;90.90
13794;DHT22;31160;49.500;7.772;2023-08-24T11:36:01;30.10;90.50
13794;DHT22;31160;49.500;7.772;2023-08-24T11:38:39;30.10;91.40
13794;DHT22;31160;49.500;7.772;2023-08-24T11:41:17;29.70;90.70
13794;DHT22;31160;49.500;7.772;2023-08-24T11:43:45;29.70;90.90
13794;DHT22;31160;49.500;7.772;2023-08-24T11:46:12;29.70;92.00
13794;DHT22;31160;49.500;7.772;2023-08-24T11:48:40;30.00;91.40
13794;DHT22;31160;49.500;7.772;2023-08-24T11:51:11;29.80;91.60
13794;DHT22;31160;49.500;7.772;2023-08-24T11:53:45;29.60;91.80
13794;DHT22;31160;49.500;7.772;2023-08-24T11:56:14;29.70;92.50
13794;DHT22;31160;49.500;7.772;2023-08-24T11:58:42;29.80;92.10
13794;DHT22;31160;49.500;7.772;2023-08-24T12:01:10;29.80;92.10
13794;DHT22;31160;49.500;7.772;2023-08-24T12:03:38;29.90;92.70
13794;DHT22;31160;49.500;7.772;2023-08-24T12:06:13;30.00;92.50
13794;DHT22;31160;49.500;7.772;2023-08-24T12:08:41;29.80;92.60
13794;DHT22;31160;49.500;7.772;2023-08-24T12:11:19;30.00;92.90
13794;DHT22;31160;49.500;7.772;2023-08-24T12:13:49;29.70;93.00
13794;DHT22;31160;49.500;7.772;2023-08-24T12:16:17;29.70;93.30
13794;DHT22;31160;49.500;7.772;2023-08-24T12:19:02;29.60;93.20
13794;DHT22;31160;49.500;7.772;2023-08-24T12:21:29;29.40;93.50
13794;DHT22;31160;49.500;7.772;2023-08-24T12:24:01;29.60;93.40
13794;DHT22;31160;49.500;7.772;2023-08-24T12:26:28;29.60;93.90
13794;DHT22;31160;49.500;7.772;2023-08-24T12:29:00;29.90;93.20
13794;DHT22;31160;49.500;7.772;2023-08-24T12:31:28;29.90;93.20
13794;DHT22;31160;49.500;7.772;2023-08-24T12:34:06;30.00;93.20
13794;DHT22;31160;49.500;7.772;2023-08-24T12:36:35;30.10;93.30
13794;DHT22;31160;49.500;7.772;2023-08-24T12:39:04;30.20;93.40
13794;DHT22;31160;49.500;7.772;2023-08-24T12:41:31;30.40;92.90
13794;DHT22;31160;49.500;7.772;2023-08-24T12:43:58;30.70;93.20
13794;DHT22;31160;49.500;7.772;2023-08-24T12:46:25;30.50;92.80
13794;DHT22;31160;49.500;7.772;2023-08-24T12:48:54;30.50;93.00
13794;DHT22;31160;49.500;7.772;2023-08-24T12:51:22;30.50;93.40
13794;DHT22;31160;49.500;7.772;2023-08-24T12:53:51;30.40;92.80
13794;DHT22;31160;49.500;7.772;2023-08-24T12:56:18;30.70;93.20
13794;DHT22;31160;49.500;7.772;2023-08-24T12:58:44;30.50;93.60
13794;DHT22;31160;49.500;7.772;2023-08-24T13:01:11;30.40;93.70
13794;DHT22;31160;49.500;7.772;2023-08-24T13:03:39;30.40;93.40
13794;DHT22;31160;49.500;7.772;2023-08-24T13:06:06;30.20;94.00
13794;DHT22;31160;49.500;7.772;2023-08-24T13:08:49;30.10;93.80
13794;DHT22;31160;49.500;7.772;2023-08-24T13:11:16;30.20;93.80
13794;DHT22;31160;49.500;7.772;2023-08-24T13:13:43;30.10;93.90
13794;DHT22;31160;49.500;7.772;2023-08-24T13:16:12;30.00;94.20
13794;DHT22;31160;49.500;7.772;2023-08-24T13:18:38;29.70;94.70
13794;DHT22;31160;49.500;7.772;2023-08-24T13:21:05;29.70;95.10
13794;DHT22;31160;49.500;7.772;2023-08-24T13:23:32;29.50;95.60
13794;DHT22;31160;49.500;7.772;2023-08-24T13:26:00;28.90;96.40
13794;DHT22;31160;49.500;7.772;2023-08-24T13:28:27;27.60;97.80
13794;DHT22;31160;49.500;7.772;2023-08-24T13:30:56;26.90;99.20
13794;DHT22;31160;49.500;7.772;2023-08-24T13:33:22;26.70;99.20
13794;DHT22;31160;49.500;7.772;2023-08-24T13:35:49;26.40;99.70
13794;DHT22;31160;49.500;7.772;2023-08-24T13:38:16;26.20;99.80
13794;DHT22;31160;49.500;7.772;2023-08-24T13:40:43;25.90;99.90
13794;DHT22;31160;49.500;7.772;2023-08-24T13:43:12;26.20;99.90
13794;DHT22;31160;49.500;7.772;2023-08-24T13:45:39;26.40;99.90
13794;DHT22;31160;49.500;7.772;2023-08-24T13:48:06;26.40;99.90
13794;DHT22;31160;49.500;7.772;2023-08-24T13:50:34;26.50;99.60
13794;DHT22;31160;49.500;7.772;2023-08-24T13:53:01;26.50;99.80
13794;DHT22;31160;49.500;7.772;2023-08-24T13:55:29;26.70;99.50
13794;DHT22;31160;49.500;7.772;2023-08-24T13:57:55;26.80;99.30
13794;DHT22;31160;49.500;7.772;2023-08-24T14:00:22;26.80;99.70
13794;DHT22;31160;49.500;7.772;2023-08-24T14:02:49;26.80;99.90
13794;DHT22;31160;49.500;7.772;2023-08-24T14:05:17;26.80;99.70
13794;DHT22;31160;49.500;7.772;2023-08-24T14:07:44;26.70;99.90
13794;DHT22;31160;49.500;7.772;2023-08-24T14:10:11;26.70;99.90
13794;DHT22;31160;49.500;7.772;2023-08-24T14:12:38;26.70;99.90
13794;DHT22;31160;49.500;7.772;2023-08-24T14:15:05;26.50;99.90
13794;DHT22;31160;49.500;7.772;2023-08-24T14:17:33;26.10;99.90
13794;DHT22;31160;49.500;7.772;2023-08-24T14:20:00;25.30;99.90
13794;DHT22;31160;49.500;7.772;2023-08-24T14:22:27;24.80;99.90
13794;DHT22;31160;49.500;7.772;2023-08-24T14:24:54;24.30;99.90
13794;DHT22;31160;49.500;7.772;2023-08-24T14:27:20;23.90;99.90
13794;DHT22;31160;49.500;7.772;2023-08-24T14:29:47;23.50;99.90
13794;DHT22;31160;49.500;7.772;2023-08-24T14:32:14;23.20;99.90
13794;DHT22;31160;49.500;7.772;2023-08-24T14:34:41;23.10;99.90
13794;DHT22;31160;49.500;7.772;2023-08-24T14:37:08;23.10;99.90
13794;DHT22;31160;49.500;7.772;2023-08-24T14:39:35;23.10;99.90
13794;DHT22;31160;49.500;7.772;2023-08-24T14:42:01;23.20;99.90
13794;DHT22;31160;49.500;7.772;2023-08-24T14:44:29;23.50;99.90
13794;DHT22;31160;49.500;7.772;2023-08-24T14:46:56;23.80;99.90
13794;DHT22;31160;49.500;7.772;2023-08-24T14:49:23;24.00;99.90
13794;DHT22;31160;49.500;7.772;2023-08-24T14:51:50;24.30;99.90
13794;DHT22;31160;49.500;7.772;2023-08-24T14:54:16;24.40;99.90
13794;DHT22;31160;49.500;7.772;2023-08-24T14:56:43;24.60;99.90
13794;DHT22;31160;49.500;7.772;2023-08-24T14:59:10;24.70;99.90
13794;DHT22;31160;49.500;7.772;2023-08-24T15:01:37;24.80;99.90
13794;DHT22;31160;49.500;7.772;2023-08-24T15:04:03;24.70;99.90
13794;DHT22;31160;49.500;7.772;2023-08-24T15:06:30;24.40;99.90
13794;DHT22;31160;49.500;7.772;2023-08-24T15:08:57;24.20;99.90
13794;DHT22;31160;49.500;7.772;2023-08-24T15:11:25;24.40;99.90
13794;DHT22;31160;49.500;7.772;2023-08-24T15:13:53;24.60;99.90
13794;DHT22;31160;49.500;7.772;2023-08-24T15:16:19;24.60;99.90
13794;DHT22;31160;49.500;7.772;2023-08-24T15:18:46;24.50;99.90
13794;DHT22;31160;49.500;7.772;2023-08-24T15:21:13;24.50;99.90
13794;DHT22;31160;49.500;7.772;2023-08-24T15:23:41;24.60;99.90
13794;DHT22;31160;49.500;7.772;2023-08-24T15:26:08;24.60;99.90
13794;DHT22;31160;49.500;7.772;2023-08-24T15:28:37;24.60;99.90
13794;DHT22;31160;49.500;7.772;2023-08-24T15:31:04;24.80;99.90
13794;DHT22;31160;49.500;7.772;2023-08-24T15:33:31;24.70;99.90
13794;DHT22;31160;49.500;7.772;2023-08-24T15:35:58;24.50;99.90
13794;DHT22;31160;49.500;7.772;2023-08-24T15:38:25;24.40;99.90
13794;DHT22;31160;49.500;7.772;2023-08-24T15:40:53;24.40;99.90
13794;DHT22;31160;49.500;7.772;2023-08-24T15:43:23;24.30;99.90